Time;durP1;ratioP1;P1;durP2;ratioP2;P2;SDS_P1;SDS_P2;PMS_P1;PMS_P2;Temp;Humidity;BMP_temperature;BMP_pressure;BME280_temperature;BME280_humidity;BME280_pressure;Samples;Min_cycle;Max_cycle;Signal;HPM_P1;HPM_P2
2021/11/12 00:03:22;;;;;;;38.83;18.38;;;3.70;99.90;;;;;;5055580;28;20223;-73
2021/11/12 00:12:22;;;;;;;71.00;20.45;;;3.30;99.90;;;;;;5065922;28;20196;-74
2021/11/12 00:15:11;;;;;;;40.08;19.45;;;3.20;99.90;;;;;;5059959;28;20276;-72
2021/11/12 00:17:57;;;;;;;71.60;21.20;;;3.20;99.90;;;;;;5067277;28;20274;-73
2021/11/12 00:20:43;;;;;;;58.78;19.48;;;3.10;99.90;;;;;;5070035;28;20204;-74
2021/11/12 00:23:32;;;;;;;60.92;19.05;;;3.10;99.90;;;;;;5065936;28;20224;-74
2021/11/12 00:26:19;;;;;;;71.15;19.73;;;3.10;99.90;;;;;;5069331;28;20216;-72
2021/11/12 00:29:07;;;;;;;42.72;20.38;;;2.90;99.90;;;;;;5056835;28;20567;-76
2021/11/12 00:32:01;;;;;;;56.20;21.23;;;2.90;99.90;;;;;;5064711;28;20581;-72
2021/11/12 00:34:55;;;;;;;29.33;20.02;;;2.90;99.90;;;;;;5064889;28;20226;-75
2021/11/12 00:40:51;;;;;;;30.58;20.70;;;3.20;99.90;;;;;;5069066;28;20222;-72
2021/11/12 00:43:39;;;;;;;37.72;20.80;;;3.30;99.90;;;;;;5061281;28;20224;-72
2021/11/12 00:46:34;;;;;;;55.78;20.70;;;3.50;99.90;;;;;;5063780;28;20224;-74
2021/11/12 00:49:23;;;;;;;30.90;20.55;;;3.50;99.90;;;;;;5067002;28;20675;-72
2021/11/12 00:52:10;;;;;;;100.80;20.67;;;3.60;99.90;;;;;;5060431;28;20290;-73
2021/11/12 00:54:56;;;;;;;73.28;21.02;;;3.50;99.90;;;;;;5058013;28;20741;-73
2021/11/12 00:57:43;;;;;;;30.92;20.77;;;3.40;99.90;;;;;;5066422;28;20200;-72
2021/11/12 01:00:29;;;;;;;32.20;21.63;;;3.30;99.90;;;;;;5074904;28;20200;-73
2021/11/12 01:03:14;;;;;;;52.33;19.88;;;3.40;99.90;;;;;;5065380;28;20220;-75
2021/11/12 01:06:00;;;;;;;72.95;21.25;;;3.40;99.90;;;;;;5060553;28;20831;-72
2021/11/12 01:08:46;;;;;;;73.38;20.95;;;3.30;99.90;;;;;;5069277;28;20301;-77
2021/11/12 01:11:32;;;;;;;32.00;21.67;;;3.10;99.90;;;;;;5065061;28;20581;-73
2021/11/12 01:14:22;;;;;;;46.20;20.27;;;3.10;99.90;;;;;;5066741;28;20290;-75
2021/11/12 01:17:09;;;;;;;67.22;21.52;;;3.10;99.90;;;;;;5067379;28;20236;-73
2021/11/12 01:19:55;;;;;;;36.47;19.52;;;3.10;99.90;;;;;;5066154;28;20220;-73
2021/11/12 01:22:41;;;;;;;43.03;22.27;;;3.10;99.90;;;;;;5068432;28;20242;-77
2021/11/12 01:25:26;;;;;;;85.72;23.92;;;3.10;99.90;;;;;;5070404;28;20720;-73
2021/11/12 01:28:12;;;;;;;55.45;22.95;;;2.90;99.90;;;;;;5059042;28;20256;-72
2021/11/12 01:31:00;;;;;;;68.28;20.88;;;3.00;99.90;;;;;;5067069;28;20266;-73
2021/11/12 01:33:45;;;;;;;42.85;20.38;;;3.10;99.90;;;;;;5068363;28;20242;-75
2021/11/12 01:36:33;;;;;;;29.33;20.58;;;3.20;99.90;;;;;;5069223;28;20310;-75
2021/11/12 01:39:20;;;;;;;37.15;19.67;;;3.20;99.90;;;;;;5068472;28;20211;-72
2021/11/12 01:42:06;;;;;;;28.27;19.48;;;3.30;99.90;;;;;;5069699;28;20219;-73
2021/11/12 01:44:56;;;;;;;79.65;23.05;;;3.30;99.90;;;;;;5072684;28;20886;-73
2021/11/12 01:47:54;;;;;;;29.25;19.20;;;3.40;99.90;;;;;;5065368;28;20338;-73
2021/11/12 01:50:45;;;;;;;27.77;19.85;;;3.40;99.90;;;;;;5065106;28;20197;-73
2021/11/12 01:53:34;;;;;;;33.35;18.88;;;3.50;99.90;;;;;;5068413;28;20219;-73
2021/11/12 01:59:23;;;;;;;25.48;18.00;;;3.50;99.90;;;;;;5067894;28;20213;-72
2021/11/12 02:02:09;;;;;;;76.28;18.35;;;3.50;99.90;;;;;;5070366;28;20711;-72
2021/11/12 02:04:56;;;;;;;33.05;18.10;;;3.50;99.90;;;;;;5068589;28;20208;-73
2021/11/12 02:07:42;;;;;;;27.88;18.02;;;3.40;99.90;;;;;;5070294;28;20566;-73
2021/11/12 02:10:30;;;;;;;27.38;18.42;;;3.40;99.90;;;;;;5063973;28;20200;-73
2021/11/12 02:13:17;;;;;;;33.58;17.60;;;3.40;99.90;;;;;;5068506;28;20203;-76
2021/11/12 02:16:06;;;;;;;27.08;17.92;;;3.40;99.90;;;;;;5070786;28;20228;-72
2021/11/12 02:18:52;;;;;;;39.72;18.17;;;3.50;99.90;;;;;;5070375;28;20208;-72
2021/11/12 02:21:45;;;;;;;35.65;17.48;;;3.30;99.90;;;;;;5068269;28;20262;-72
2021/11/12 02:24:34;;;;;;;25.40;17.90;;;3.30;99.90;;;;;;5068959;28;20205;-73
2021/11/12 02:27:23;;;;;;;26.38;18.33;;;3.30;99.90;;;;;;5069294;28;20220;-72
2021/11/12 02:30:10;;;;;;;25.02;17.52;;;3.40;99.90;;;;;;5067197;28;20278;-73
2021/11/12 02:32:59;;;;;;;24.63;18.10;;;3.40;99.90;;;;;;5061631;28;20697;-73
2021/11/12 02:36:00;;;;;;;30.90;19.75;;;3.50;99.90;;;;;;5070779;28;20224;-72
2021/11/12 02:38:49;;;;;;;28.45;18.38;;;3.60;99.90;;;;;;5065777;28;20201;-75
2021/11/12 02:41:36;;;;;;;44.47;17.90;;;3.60;99.90;;;;;;5068015;28;20208;-73
2021/11/12 02:44:23;;;;;;;28.50;18.25;;;3.50;99.90;;;;;;5071778;28;20567;-74
2021/11/12 02:47:10;;;;;;;24.70;17.80;;;3.50;99.90;;;;;;5065648;28;20224;-73
2021/11/12 02:49:57;;;;;;;59.63;19.65;;;3.50;99.90;;;;;;5071292;28;20203;-75
2021/11/12 02:52:44;;;;;;;33.13;17.75;;;3.60;99.90;;;;;;5067222;28;20199;-73
2021/11/12 02:55:31;;;;;;;31.42;16.20;;;3.60;99.90;;;;;;5070477;28;20208;-75
2021/11/12 02:58:19;;;;;;;38.50;16.33;;;3.40;99.90;;;;;;5070265;28;20216;-75
2021/11/12 03:01:06;;;;;;;31.60;18.92;;;3.20;99.90;;;;;;5065804;28;20723;-75
2021/11/12 03:03:52;;;;;;;72.28;18.77;;;3.30;99.90;;;;;;5071096;28;20228;-72
2021/11/12 03:06:39;;;;;;;33.72;19.08;;;3.30;99.90;;;;;;5064482;28;20232;-75
2021/11/12 03:09:26;;;;;;;40.00;16.70;;;3.40;99.90;;;;;;5061579;28;20229;-74
2021/11/12 03:12:13;;;;;;;22.45;16.80;;;3.50;99.90;;;;;;5070212;28;20247;-74
2021/11/12 03:14:59;;;;;;;31.63;16.63;;;3.50;99.90;;;;;;5064755;28;20209;-75
2021/11/12 03:17:48;;;;;;;26.98;17.95;;;3.50;99.90;;;;;;5068477;28;20211;-74
2021/11/12 03:20:37;;;;;;;41.65;16.58;;;3.40;99.90;;;;;;5066616;28;20675;-74
2021/11/12 03:23:26;;;;;;;38.63;16.13;;;3.30;99.90;;;;;;5064644;28;20220;-75
2021/11/12 03:26:20;;;;;;;38.83;19.15;;;3.30;99.90;;;;;;5069130;28;20239;-75
2021/11/12 03:29:27;;;;;;;22.90;16.67;;;3.20;99.90;;;;;;5064132;28;20685;-72
2021/11/12 04:00:11;;;;;;;26.02;15.32;;;3.20;99.90;;;;;;5049936;28;20563;-74
2021/11/12 04:03:14;;;;;;;22.30;15.48;;;3.20;99.90;;;;;;5069721;28;20251;-75
2021/11/12 04:06:19;;;;;;;21.85;15.00;;;3.20;99.90;;;;;;5064420;28;20235;-73
2021/11/12 04:30:53;;;;;;;20.98;13.70;;;3.00;99.90;;;;;;5051814;28;20223;-75
2021/11/12 04:40:18;;;;;;;21.90;15.20;;;3.00;99.90;;;;;;5066815;28;20225;-74
2021/11/12 05:10:54;;;;;;;25.83;15.13;;;2.40;99.90;;;;;;5067293;28;20191;-74
2021/11/12 05:44:28;;;;;;;17.52;12.85;;;2.80;99.90;;;;;;5066896;28;20624;-73
2021/11/12 05:50:20;;;;;;;17.75;13.10;;;2.70;99.90;;;;;;5040952;28;20558;-73
2021/11/12 05:56:10;;;;;;;19.02;13.55;;;3.00;99.90;;;;;;5069736;28;20216;-73
2021/11/12 05:58:55;;;;;;;18.77;11.73;;;3.10;99.90;;;;;;5067699;28;20312;-73
2021/11/12 06:01:42;;;;;;;15.77;11.65;;;3.00;99.90;;;;;;5068651;28;20208;-73
2021/11/12 06:04:29;;;;;;;13.73;11.00;;;2.90;99.90;;;;;;5064841;28;20357;-73
2021/11/12 06:07:15;;;;;;;17.52;11.68;;;3.10;99.90;;;;;;5071266;28;20602;-73
2021/11/12 06:10:01;;;;;;;22.10;12.90;;;3.10;99.90;;;;;;5066304;28;20204;-73
2021/11/12 06:12:48;;;;;;;15.77;11.45;;;3.00;99.90;;;;;;5064144;28;20581;-73
2021/11/12 06:15:34;;;;;;;23.65;12.85;;;3.00;99.90;;;;;;5069328;28;20770;-73
2021/11/12 06:18:20;;;;;;;71.78;12.57;;;2.90;99.90;;;;;;5068735;28;20225;-73
2021/11/12 06:21:08;;;;;;;25.27;11.65;;;2.80;99.90;;;;;;5062322;28;20331;-73
2021/11/12 06:23:55;;;;;;;21.10;12.20;;;2.60;99.90;;;;;;5065075;28;20212;-73
2021/11/12 06:26:40;;;;;;;21.90;13.77;;;2.60;99.90;;;;;;5071198;28;20239;-73
2021/11/12 06:29:26;;;;;;;21.55;14.13;;;2.60;99.90;;;;;;5067977;28;20243;-73
2021/11/12 06:32:12;;;;;;;21.05;13.57;;;2.50;99.90;;;;;;5058932;28;20205;-73
2021/11/12 06:34:57;;;;;;;19.05;13.93;;;2.50;99.90;;;;;;5069121;28;20208;-73
2021/11/12 06:37:45;;;;;;;22.13;13.95;;;2.60;99.90;;;;;;5069972;28;20240;-73
2021/11/12 06:40:30;;;;;;;26.80;14.15;;;2.60;99.90;;;;;;5067412;28;20235;-73
2021/11/12 06:43:23;;;;;;;19.75;13.90;;;2.60;99.90;;;;;;5068235;28;20235;-73
2021/11/12 06:49:24;;;;;;;20.17;13.52;;;2.80;99.90;;;;;;5069842;28;20231;-73
2021/11/12 06:52:11;;;;;;;21.45;14.80;;;2.90;99.90;;;;;;5065837;28;20247;-73
2021/11/12 06:55:01;;;;;;;19.35;14.85;;;2.80;99.90;;;;;;5068631;28;20208;-73
2021/11/12 06:57:48;;;;;;;41.55;15.10;;;2.80;99.90;;;;;;5066273;28;20617;-73
2021/11/12 07:00:34;;;;;;;21.05;14.05;;;2.80;99.90;;;;;;5068600;28;20200;-73
2021/11/12 07:03:20;;;;;;;23.40;15.25;;;2.80;99.90;;;;;;5061841;28;20228;-73
2021/11/12 07:06:05;;;;;;;22.38;13.65;;;2.90;99.90;;;;;;5068056;28;20355;-73
2021/11/12 07:08:52;;;;;;;35.38;16.30;;;2.90;99.90;;;;;;5069757;28;20231;-73
2021/11/12 07:11:39;;;;;;;23.13;13.80;;;3.00;99.90;;;;;;5067181;28;20204;-73
2021/11/12 07:14:24;;;;;;;36.45;15.35;;;3.00;99.90;;;;;;5064116;28;20218;-73
2021/11/12 07:17:10;;;;;;;23.45;14.32;;;3.10;99.90;;;;;;5059552;28;20236;-73
2021/11/12 07:19:56;;;;;;;30.92;15.23;;;3.10;99.90;;;;;;5067915;28;20201;-73
2021/11/12 07:22:42;;;;;;;42.08;14.90;;;3.20;99.90;;;;;;5062633;28;20215;-73
2021/11/12 07:25:28;;;;;;;25.13;15.90;;;3.20;99.90;;;;;;5069204;28;20684;-73
2021/11/12 07:28:15;;;;;;;24.58;14.15;;;3.10;99.90;;;;;;5067991;28;20204;-73
2021/11/12 07:31:01;;;;;;;29.90;13.77;;;3.20;99.90;;;;;;5064393;28;20336;-73
2021/11/12 07:33:48;;;;;;;35.95;16.25;;;3.00;99.90;;;;;;5064267;28;20200;-73
2021/11/12 07:36:37;;;;;;;53.83;16.70;;;3.00;99.90;;;;;;5064789;28;20242;-73
2021/11/12 07:39:25;;;;;;;25.80;15.35;;;2.90;99.90;;;;;;5064820;28;20196;-73
2021/11/12 07:42:18;;;;;;;29.55;17.13;;;2.90;99.90;;;;;;5067806;28;20571;-73
2021/11/12 07:45:10;;;;;;;27.08;16.25;;;2.90;99.90;;;;;;5060956;28;20216;-73
2021/11/12 07:47:56;;;;;;;27.27;17.20;;;3.00;99.90;;;;;;5067535;28;20291;-73
2021/11/12 07:50:41;;;;;;;26.85;15.18;;;3.10;99.90;;;;;;5063770;28;20215;-73
2021/11/12 07:53:27;;;;;;;25.65;15.35;;;3.10;99.90;;;;;;5066116;28;20304;-73
2021/11/12 07:56:14;;;;;;;28.13;15.93;;;3.10;99.90;;;;;;5064650;28;20379;-73
2021/11/12 07:58:59;;;;;;;23.92;15.35;;;3.20;99.90;;;;;;5066333;28;20565;-73
2021/11/12 08:01:46;;;;;;;27.17;17.27;;;3.20;99.90;;;;;;5065391;28;20306;-73
2021/11/12 08:04:32;;;;;;;27.92;15.70;;;3.20;99.90;;;;;;5066745;28;20220;-73
2021/11/12 08:07:18;;;;;;;32.85;15.48;;;3.20;99.90;;;;;;5064183;28;20712;-73
2021/11/12 08:10:06;;;;;;;30.00;16.15;;;3.30;99.90;;;;;;5065680;28;20297;-73
2021/11/12 08:13:00;;;;;;;29.63;15.50;;;3.20;99.90;;;;;;5066420;28;20204;-73
2021/11/12 08:15:50;;;;;;;25.98;15.57;;;3.30;99.90;;;;;;5065035;28;20207;-73
2021/11/12 08:18:47;;;;;;;25.73;15.85;;;3.40;99.90;;;;;;5062904;28;20250;-72
2021/11/12 08:21:38;;;;;;;25.42;15.38;;;3.50;99.90;;;;;;5064715;28;20282;-73
2021/11/12 08:24:34;;;;;;;25.65;15.20;;;3.50;99.90;;;;;;5067506;28;20228;-73
2021/11/12 08:27:45;;;;;;;26.40;15.73;;;3.50;99.90;;;;;;5068434;28;20351;-72
2021/11/12 08:33:38;;;;;;;29.40;16.15;;;3.60;99.90;;;;;;5065173;28;20239;-73
2021/11/12 08:39:41;;;;;;;30.63;16.80;;;3.60;99.90;;;;;;5066515;28;20613;-73
2021/11/12 08:42:30;;;;;;;39.35;17.15;;;3.60;99.90;;;;;;5070327;28;20200;-73
2021/11/12 08:45:20;;;;;;;25.63;16.20;;;3.50;99.90;;;;;;5062095;28;20309;-72
2021/11/12 08:48:08;;;;;;;34.80;18.77;;;3.50;99.90;;;;;;5065595;28;20239;-72
2021/11/12 08:50:54;;;;;;;29.85;17.10;;;3.60;99.90;;;;;;5064999;28;20562;-73
2021/11/12 08:53:43;;;;;;;36.28;17.33;;;3.60;99.90;;;;;;5061340;28;20570;-73
2021/11/12 08:56:29;;;;;;;33.65;17.52;;;3.60;99.90;;;;;;5069074;28;20216;-73
2021/11/12 08:59:15;;;;;;;31.92;17.40;;;3.60;99.90;;;;;;5068164;28;20200;-73
2021/11/12 09:02:01;;;;;;;32.85;18.13;;;3.60;99.90;;;;;;5065846;28;20260;-73
2021/11/12 09:04:48;;;;;;;29.98;16.40;;;3.50;99.90;;;;;;5062669;28;20362;-73
2021/11/12 09:07:34;;;;;;;34.83;19.85;;;3.50;99.90;;;;;;5063965;28;20724;-73
2021/11/12 09:10:23;;;;;;;33.17;17.85;;;3.50;99.90;;;;;;5067977;28;20204;-73
2021/11/12 09:13:16;;;;;;;33.97;18.98;;;3.50;99.90;;;;;;5061017;28;20723;-73
2021/11/12 09:16:05;;;;;;;37.45;19.75;;;3.60;99.90;;;;;;5065436;28;20220;-73
2021/11/12 09:18:53;;;;;;;27.92;16.45;;;3.70;99.90;;;;;;5063012;28;20606;-73
2021/11/12 09:21:39;;;;;;;27.25;16.55;;;3.60;99.90;;;;;;5067883;28;20243;-73
2021/11/12 09:24:25;;;;;;;29.05;16.05;;;3.50;99.90;;;;;;5068474;28;20224;-74
2021/11/12 09:27:13;;;;;;;29.23;17.60;;;3.50;99.90;;;;;;5065770;28;20228;-74
2021/11/12 09:29:58;;;;;;;30.27;17.83;;;3.40;99.90;;;;;;5059909;28;20251;-74
2021/11/12 09:32:44;;;;;;;29.17;17.80;;;3.50;99.90;;;;;;5066799;28;20574;-74
2021/11/12 09:35:30;;;;;;;24.50;14.85;;;3.50;99.90;;;;;;5067303;28;20209;-73
2021/11/12 09:38:15;;;;;;;29.80;19.10;;;3.70;99.90;;;;;;5067991;28;20278;-74
2021/11/12 09:41:01;;;;;;;31.00;16.73;;;3.70;99.90;;;;;;5062035;28;20255;-73
2021/11/12 09:43:49;;;;;;;29.50;15.98;;;3.80;99.90;;;;;;5066708;28;20288;-74
2021/11/12 09:46:36;;;;;;;33.35;17.13;;;3.80;99.90;;;;;;5067774;28;20755;-74
2021/11/12 09:49:22;;;;;;;33.38;17.58;;;3.80;99.90;;;;;;5063334;28;20680;-73
2021/11/12 09:52:10;;;;;;;28.80;16.30;;;3.80;99.90;;;;;;5068213;28;20211;-73
2021/11/12 09:54:56;;;;;;;30.98;16.45;;;3.90;99.90;;;;;;5068103;28;20677;-73
2021/11/12 09:57:43;;;;;;;30.17;17.17;;;4.00;99.90;;;;;;5067147;28;20240;-73
2021/11/12 10:00:32;;;;;;;28.38;16.60;;;4.00;99.90;;;;;;5068472;28;20212;-73
2021/11/12 10:03:18;;;;;;;28.42;16.88;;;4.00;99.90;;;;;;5064148;28;20215;-73
2021/11/12 10:06:19;;;;;;;37.08;17.92;;;4.10;99.90;;;;;;5072416;28;20216;-73
2021/11/12 10:09:14;;;;;;;28.00;16.80;;;4.20;99.90;;;;;;5068148;28;20197;-73
2021/11/12 10:12:00;;;;;;;32.00;17.55;;;4.20;99.90;;;;;;5068708;28;20700;-73
2021/11/12 10:14:50;;;;;;;31.67;18.13;;;4.20;99.90;;;;;;5072196;28;20251;-73
2021/11/12 10:17:38;;;;;;;34.65;17.85;;;4.10;99.90;;;;;;5070686;28;20231;-73
2021/11/12 10:20:24;;;;;;;30.33;17.55;;;4.00;99.90;;;;;;5068032;28;20204;-73
2021/11/12 10:23:16;;;;;;;30.02;18.25;;;4.00;99.90;;;;;;5070852;28;20203;-73
2021/11/12 10:26:04;;;;;;;27.38;16.55;;;4.00;99.90;;;;;;5067969;28;20223;-73
2021/11/12 10:28:50;;;;;;;29.95;18.23;;;4.00;99.90;;;;;;5065712;28;20204;-74
2021/11/12 10:31:42;;;;;;;33.28;18.88;;;4.20;99.90;;;;;;5073048;28;20216;-73
2021/11/12 10:34:31;;;;;;;32.65;20.33;;;4.20;99.90;;;;;;5057247;28;20209;-73
2021/11/12 10:37:19;;;;;;;31.65;18.75;;;4.30;99.90;;;;;;5066530;28;20431;-73
2021/11/12 10:40:09;;;;;;;35.50;19.85;;;4.40;99.90;;;;;;5065930;28;20326;-73
2021/11/12 10:42:58;;;;;;;35.17;19.38;;;4.40;99.90;;;;;;5071115;28;20570;-74
2021/11/12 10:45:43;;;;;;;34.67;20.52;;;4.20;99.90;;;;;;5069096;28;20709;-73
2021/11/12 10:48:30;;;;;;;40.50;20.42;;;4.10;99.90;;;;;;5071488;28;20744;-74
2021/11/12 10:51:19;;;;;;;36.05;19.42;;;4.20;99.90;;;;;;5067831;28;20576;-73
2021/11/12 10:54:05;;;;;;;34.30;19.25;;;4.30;99.90;;;;;;5069035;28;20296;-73
2021/11/12 10:56:51;;;;;;;32.65;20.05;;;4.40;99.90;;;;;;5069682;28;20302;-73
2021/11/12 10:59:51;;;;;;;32.47;19.30;;;4.50;99.90;;;;;;5067629;28;20676;-73
2021/11/12 11:02:42;;;;;;;32.85;18.92;;;4.50;99.90;;;;;;5060426;28;20212;-74
2021/11/12 11:05:31;;;;;;;34.47;20.45;;;4.50;99.90;;;;;;5071311;28;20731;-73
2021/11/12 11:08:20;;;;;;;31.90;17.35;;;4.60;99.90;;;;;;5066379;28;20686;-73
2021/11/12 11:11:09;;;;;;;32.53;19.52;;;4.60;99.90;;;;;;5069769;28;20208;-73
2021/11/12 11:13:55;;;;;;;41.55;21.17;;;4.60;99.90;;;;;;5068655;28;20315;-73
2021/11/12 11:16:41;;;;;;;36.00;20.23;;;4.70;99.90;;;;;;5067559;28;20587;-74
2021/11/12 11:19:34;;;;;;;40.58;20.88;;;4.70;99.90;;;;;;5066806;28;20212;-73
2021/11/12 11:22:20;;;;;;;43.45;22.30;;;4.60;99.90;;;;;;5066925;28;20205;-73
2021/11/12 11:25:09;;;;;;;33.03;20.13;;;4.60;99.90;;;;;;5067056;28;20220;-73
2021/11/12 11:27:56;;;;;;;41.80;23.35;;;4.60;99.90;;;;;;5063833;28;20587;-73
2021/11/12 11:30:42;;;;;;;44.78;23.80;;;4.60;99.90;;;;;;5065992;28;20338;-73
2021/11/12 11:33:28;;;;;;;46.03;21.85;;;4.50;99.90;;;;;;5064339;28;20218;-73
2021/11/12 11:36:18;;;;;;;44.75;23.88;;;4.50;99.90;;;;;;5066148;28;20231;-73
2021/11/12 11:39:06;;;;;;;45.97;23.90;;;4.50;99.90;;;;;;5065877;28;20630;-71
2021/11/12 11:41:53;;;;;;;45.45;22.98;;;4.40;99.90;;;;;;5065240;28;20591;-71
2021/11/12 11:44:42;;;;;;;35.90;21.38;;;4.50;99.90;;;;;;5065718;28;20697;-72
2021/11/12 11:47:29;;;;;;;54.90;25.58;;;4.50;99.90;;;;;;5069073;28;20269;-73
2021/11/12 11:50:28;;;;;;;48.58;24.95;;;4.40;99.90;;;;;;5066199;28;20220;-73
2021/11/12 11:53:25;;;;;;;48.20;26.13;;;4.40;99.90;;;;;;5068999;28;20237;-73
2021/11/12 11:56:15;;;;;;;47.90;25.63;;;4.40;99.90;;;;;;5071892;28;20224;-73
2021/11/12 11:59:04;;;;;;;51.97;26.80;;;4.40;99.90;;;;;;5066922;28;20192;-73
2021/11/12 12:01:52;;;;;;;50.33;24.35;;;4.40;99.90;;;;;;5068895;28;20323;-73
2021/11/12 12:04:39;;;;;;;53.55;27.83;;;4.40;99.90;;;;;;5070998;28;20239;-73
2021/11/12 12:07:27;;;;;;;63.28;30.67;;;4.50;99.90;;;;;;5070376;28;20597;-73
2021/11/12 12:10:24;;;;;;;61.00;29.33;;;4.40;99.90;;;;;;5069304;28;20681;-73
2021/11/12 12:13:10;;;;;;;55.63;29.88;;;4.40;99.90;;;;;;5071850;28;20207;-73
2021/11/12 12:16:07;;;;;;;62.53;29.05;;;4.40;99.90;;;;;;5068872;28;20201;-73
2021/11/12 12:18:54;;;;;;;55.63;25.63;;;4.40;99.90;;;;;;5070453;28;20632;-73
2021/11/12 13:21:46;;;;;;;53.00;26.70;;;4.40;99.90;;;;;;5069252;28;20246;-73
2021/11/12 13:24:36;;;;;;;56.50;28.65;;;4.50;99.90;;;;;;5061041;28;20200;-73
2021/11/12 13:27:29;;;;;;;49.15;24.95;;;4.60;99.90;;;;;;5061732;28;20283;-73
2021/11/12 13:30:27;;;;;;;50.10;27.13;;;4.70;99.90;;;;;;5056484;28;20243;-73
2021/11/12 13:33:40;;;;;;;52.03;24.85;;;4.80;99.90;;;;;;5069267;28;20367;-72
2021/11/12 13:36:28;;;;;;;51.67;25.48;;;4.80;99.90;;;;;;5071343;28;20220;-72
2021/11/12 13:39:18;;;;;;;41.35;22.02;;;4.80;99.90;;;;;;5070525;28;20199;-73
2021/11/12 13:42:05;;;;;;;46.38;24.92;;;4.80;99.90;;;;;;5068660;28;20200;-73
2021/11/12 13:44:50;;;;;;;53.08;25.40;;;4.80;99.90;;;;;;5063323;28;20224;-73
2021/11/12 13:47:36;;;;;;;42.75;24.20;;;4.70;99.90;;;;;;5068145;28;20225;-74
2021/11/12 13:50:23;;;;;;;44.28;24.70;;;4.70;99.90;;;;;;5069935;28;20208;-74
2021/11/12 13:53:09;;;;;;;56.40;25.77;;;4.70;99.90;;;;;;5068713;28;20239;-74
2021/11/12 13:55:56;;;;;;;42.00;22.73;;;4.50;99.90;;;;;;5069461;28;20196;-74
2021/11/12 13:58:41;;;;;;;48.35;27.10;;;4.50;99.90;;;;;;5070855;28;20215;-74
2021/11/12 14:01:27;;;;;;;48.03;24.65;;;4.50;99.90;;;;;;5069743;28;20207;-74
2021/11/12 14:04:26;;;;;;;48.15;27.17;;;4.50;99.90;;;;;;5073799;28;20263;-75
2021/11/12 14:07:19;;;;;;;52.63;25.83;;;4.40;99.90;;;;;;5065136;28;20794;-74
2021/11/12 14:10:07;;;;;;;50.05;25.88;;;4.40;99.90;;;;;;5073683;28;20685;-74
2021/11/12 14:12:53;;;;;;;42.97;22.92;;;4.40;99.90;;;;;;5069914;28;20286;-75
2021/11/12 14:15:43;;;;;;;52.30;26.45;;;4.40;99.90;;;;;;5070940;28;20274;-75
2021/11/12 14:18:43;;;;;;;54.25;24.60;;;4.40;99.90;;;;;;5067309;28;20220;-73
2021/11/12 14:21:37;;;;;;;46.78;24.38;;;4.40;99.90;;;;;;5064014;28;20282;-75
2021/11/12 14:24:34;;;;;;;41.15;24.50;;;4.30;99.90;;;;;;5070853;28;20204;-75
2021/11/12 14:27:24;;;;;;;48.40;25.58;;;4.40;99.90;;;;;;5068052;28;20236;-74
2021/11/12 14:33:29;;;;;;;50.85;24.35;;;4.50;99.90;;;;;;5068951;28;20685;-74
2021/11/12 14:36:30;;;;;;;54.35;24.50;;;4.50;99.90;;;;;;5069750;28;20598;-74
2021/11/12 14:45:31;;;;;;;49.33;24.08;;;4.40;99.90;;;;;;5055844;28;20754;-74
2021/11/12 14:48:24;;;;;;;54.20;27.13;;;4.50;99.90;;;;;;5063300;28;20207;-74
2021/11/12 14:51:12;;;;;;;48.35;24.38;;;4.50;99.90;;;;;;5064183;28;20201;-74
2021/11/12 14:54:05;;;;;;;45.08;24.50;;;4.50;99.90;;;;;;5070165;28;20572;-74
2021/11/12 14:56:51;;;;;;;40.05;22.77;;;4.60;99.90;;;;;;5070439;28;20294;-75
2021/11/12 14:59:41;;;;;;;57.28;23.20;;;4.60;99.90;;;;;;5071005;28;20195;-75
2021/11/12 15:02:28;;;;;;;45.30;25.52;;;4.40;99.90;;;;;;5066580;28;20204;-75
2021/11/12 15:05:14;;;;;;;44.60;23.63;;;4.40;99.90;;;;;;5066777;28;20221;-75
2021/11/12 15:08:05;;;;;;;44.72;24.13;;;4.40;99.90;;;;;;5068188;28;20231;-75
2021/11/12 15:10:53;;;;;;;46.75;22.67;;;4.50;99.90;;;;;;5066933;28;20742;-75
2021/11/12 15:13:40;;;;;;;44.50;23.90;;;4.60;99.90;;;;;;5068282;28;20211;-75
2021/11/12 15:16:27;;;;;;;43.75;25.00;;;4.50;99.90;;;;;;5063037;28;20784;-75
2021/11/12 15:19:15;;;;;;;43.17;23.45;;;4.50;99.90;;;;;;5066963;28;20213;-75
2021/11/12 15:22:06;;;;;;;42.92;25.30;;;4.50;99.90;;;;;;5062838;28;20205;-73
2021/11/12 15:25:05;;;;;;;41.15;24.20;;;4.60;99.90;;;;;;5065751;28;20204;-73
2021/11/12 15:28:00;;;;;;;47.55;24.58;;;4.60;99.90;;;;;;5063042;28;20312;-73
2021/11/12 15:30:52;;;;;;;46.00;24.13;;;4.30;99.90;;;;;;5069086;28;20314;-73
2021/11/12 15:33:39;;;;;;;43.67;22.13;;;4.30;99.90;;;;;;5064634;28;20207;-73
2021/11/12 15:36:25;;;;;;;43.47;24.08;;;4.20;99.90;;;;;;5069400;28;20347;-72
2021/11/12 15:39:12;;;;;;;48.92;24.27;;;4.20;99.90;;;;;;5059939;28;20590;-73
2021/11/12 15:42:16;;;;;;;45.47;24.27;;;4.10;99.90;;;;;;5063350;28;20295;-73
2021/11/12 15:45:05;;;;;;;42.45;23.52;;;4.20;99.90;;;;;;5069893;28;20431;-73
2021/11/12 15:47:53;;;;;;;35.35;20.15;;;4.20;99.90;;;;;;5061344;28;20582;-73
2021/11/12 15:50:48;;;;;;;34.55;20.52;;;4.30;99.90;;;;;;5063259;28;20555;-74
2021/11/12 15:53:39;;;;;;;40.67;22.70;;;4.30;99.90;;;;;;5067192;28;20231;-73
2021/11/12 15:59:34;;;;;;;37.75;20.63;;;4.30;99.90;;;;;;5068961;28;20276;-73
2021/11/12 16:05:40;;;;;;;40.88;22.20;;;4.20;99.90;;;;;;5064616;28;20211;-73
2021/11/12 16:11:36;;;;;;;44.28;22.25;;;4.00;99.90;;;;;;5066450;28;20205;-73
2021/11/12 16:14:24;;;;;;;40.80;22.38;;;3.90;99.90;;;;;;5060478;28;20208;-73
2021/11/12 16:20:37;;;;;;;40.10;21.60;;;3.80;99.90;;;;;;5061699;28;20235;-73
2021/11/12 16:26:28;;;;;;;37.90;22.30;;;3.70;99.90;;;;;;5065482;28;20227;-73
2021/11/12 16:32:26;;;;;;;36.92;21.17;;;3.70;99.90;;;;;;5057321;28;20207;-73
2021/11/12 16:35:15;;;;;;;43.00;24.15;;;3.80;99.90;;;;;;5069379;28;20278;-73
2021/11/12 16:38:06;;;;;;;60.35;27.75;;;3.80;99.90;;;;;;5060395;28;20228;-73
2021/11/12 16:40:56;;;;;;;52.90;25.92;;;3.90;99.90;;;;;;5063824;28;20378;-73
2021/11/12 16:43:59;;;;;;;48.65;26.58;;;3.90;99.90;;;;;;5067428;28;20216;-73
2021/11/12 16:46:56;;;;;;;58.83;28.83;;;3.90;99.90;;;;;;5058823;28;20228;-72
2021/11/12 16:49:49;;;;;;;55.00;30.63;;;3.90;99.90;;;;;;5063345;28;20208;-73
2021/11/12 16:52:43;;;;;;;63.75;32.35;;;4.00;99.90;;;;;;5062373;28;20197;-73
2021/11/12 16:55:45;;;;;;;60.85;32.30;;;4.10;99.90;;;;;;5059188;28;20362;-72
2021/11/12 16:58:37;;;;;;;67.40;31.48;;;4.10;99.90;;;;;;5059081;28;20243;-72
2021/11/12 17:04:37;;;;;;;51.88;28.88;;;3.90;99.90;;;;;;5065977;28;20215;-72
2021/11/12 17:07:34;;;;;;;50.95;29.95;;;3.80;99.90;;;;;;5067805;28;20219;-73
2021/11/12 17:10:25;;;;;;;61.25;31.88;;;3.90;99.90;;;;;;5062855;28;20204;-74
2021/11/12 17:13:18;;;;;;;60.03;32.10;;;3.80;99.90;;;;;;5072273;28;20507;-74
2021/11/12 17:19:26;;;;;;;55.92;30.75;;;3.90;99.90;;;;;;5019164;28;20258;-74
2021/11/12 17:46:43;;;;;;;40.67;23.92;;;4.10;99.90;;;;;;5062703;28;20231;-75
2021/11/12 17:49:45;;;;;;;45.45;25.27;;;4.00;99.90;;;;;;5068865;28;20204;-74
2021/11/12 18:01:56;;;;;;;53.85;27.42;;;4.00;99.90;;;;;;5066948;28;20199;-74
2021/11/12 18:05:01;;;;;;;50.92;24.70;;;3.90;99.90;;;;;;5065495;28;20278;-75
2021/11/12 18:14:40;;;;;;;47.47;26.33;;;3.80;99.90;;;;;;5072325;28;20251;-75
2021/11/12 21:45:07;;;;;;;20.92;14.38;;;4.30;99.90;;;;;;5068580;28;20199;-74
2021/11/12 21:47:53;;;;;;;20.85;12.48;;;4.40;99.90;;;;;;5063039;28;20307;-73
2021/11/12 21:50:39;;;;;;;21.98;11.90;;;4.40;99.90;;;;;;5064692;28;20280;-75
2021/11/12 21:53:27;;;;;;;19.70;12.35;;;4.40;99.90;;;;;;5066261;28;20262;-75
2021/11/12 21:56:13;;;;;;;18.35;13.15;;;4.40;99.90;;;;;;5066349;28;20228;-75
2021/11/12 21:58:59;;;;;;;21.00;14.30;;;4.40;99.90;;;;;;5061217;28;20340;-74
2021/11/12 22:01:45;;;;;;;19.50;12.32;;;4.40;99.90;;;;;;5064004;28;20744;-74
2021/11/12 22:04:31;;;;;;;18.85;12.75;;;4.40;99.90;;;;;;5063200;28;20208;-74
2021/11/12 22:07:17;;;;;;;23.23;14.48;;;4.30;99.90;;;;;;5070290;28;20706;-74
2021/11/12 22:10:05;;;;;;;22.00;14.15;;;4.20;99.90;;;;;;5060644;28;20564;-74
2021/11/12 22:12:51;;;;;;;26.38;13.95;;;4.10;99.90;;;;;;5067439;28;20208;-73
2021/11/12 22:15:39;;;;;;;19.30;13.55;;;4.00;99.90;;;;;;5063158;28;20234;-74
2021/11/12 22:18:25;;;;;;;16.30;11.65;;;3.90;99.90;;;;;;5064741;28;20197;-73
2021/11/12 22:21:11;;;;;;;22.20;13.48;;;3.90;99.90;;;;;;5067948;28;20294;-74
2021/11/12 22:23:57;;;;;;;20.98;14.40;;;3.90;99.90;;;;;;5068991;28;20989;-73
2021/11/12 22:26:46;;;;;;;23.63;14.38;;;4.00;99.90;;;;;;5075838;28;20866;-75
2021/11/12 22:29:32;;;;;;;21.13;14.35;;;4.00;99.90;;;;;;5068425;28;20208;-75
2021/11/12 22:32:19;;;;;;;23.52;14.07;;;4.10;99.90;;;;;;5064950;28;20212;-74
2021/11/12 22:35:07;;;;;;;20.15;13.30;;;4.20;99.90;;;;;;5067794;28;20741;-74